createdAt,value
2023-04-07T00:00:00.168Z,48.46
2023-04-07T00:02:28.770Z,48.43
2023-04-07T00:04:58.532Z,48.59
2023-04-07T00:07:26.303Z,49.55
2023-04-07T00:09:53.657Z,50.27
2023-04-07T00:12:21.224Z,50.35
2023-04-07T00:14:48.546Z,49.33
2023-04-07T00:17:15.878Z,49.81
2023-04-07T00:19:43.980Z,50.17
2023-04-07T00:22:11.285Z,49.77
2023-04-07T00:24:38.616Z,50.10
2023-04-07T00:27:05.957Z,48.79
2023-04-07T00:29:33.275Z,49.03
2023-04-07T00:32:00.644Z,50.05
2023-04-07T00:34:28.126Z,50.44
2023-04-07T00:36:55.467Z,48.91
2023-04-07T00:39:23.236Z,49.19
2023-04-07T00:42:22.928Z,47.69
2023-04-07T00:44:50.550Z,48.55
2023-04-07T00:47:17.903Z,48.66
2023-04-07T00:49:45.265Z,49.02
2023-04-07T00:52:12.942Z,49.49
2023-04-07T00:54:42.628Z,49.41
2023-04-07T00:57:10.027Z,49.11
2023-04-07T00:59:37.740Z,48.74
2023-04-07T01:02:17.117Z,49.10
2023-04-07T01:04:51.664Z,49.04
2023-04-07T01:07:28.832Z,49.38
2023-04-07T01:10:09.861Z,50.02
2023-04-07T01:13:02.464Z,50.19
2023-04-07T01:15:31.724Z,50.25
2023-04-07T01:18:22.290Z,49.76
2023-04-07T01:20:52.952Z,49.83
2023-04-07T01:23:40.393Z,49.68
2023-04-07T01:26:19.903Z,49.19
2023-04-07T01:29:07.619Z,49.46
2023-04-07T01:31:37.838Z,49.65
2023-04-07T01:34:06.746Z,49.64
2023-04-07T01:36:34.488Z,50.04
2023-04-07T01:39:02.619Z,49.59
2023-04-07T01:41:31.248Z,49.64
2023-04-07T01:44:01.089Z,49.66
2023-04-07T01:46:29.020Z,49.18
2023-04-07T01:48:57.052Z,49.24
2023-04-07T01:51:27.450Z,49.03
2023-04-07T01:53:56.203Z,49.39
2023-04-07T01:56:23.981Z,49.29
2023-04-07T01:58:53.663Z,48.89
2023-04-07T02:01:23.735Z,49.28
2023-04-07T02:04:05.276Z,49.42
2023-04-07T02:06:38.986Z,49.36
2023-04-07T02:09:10.889Z,49.42
2023-04-07T02:11:41.107Z,49.58
2023-04-07T02:14:09.456Z,49.53
2023-04-07T02:16:57.845Z,49.68
2023-04-07T02:19:25.230Z,49.79
2023-04-07T02:21:52.896Z,50.08
2023-04-07T02:24:21.957Z,49.52
2023-04-07T02:26:49.354Z,49.05
2023-04-07T02:29:16.680Z,49.08
2023-04-07T02:31:44.114Z,49.13
2023-04-07T02:34:11.435Z,50.00
2023-04-07T02:36:39.772Z,50.10
2023-04-07T02:39:09.286Z,50.05
2023-04-07T02:41:36.953Z,50.53
2023-04-07T02:44:06.180Z,49.81
2023-04-07T02:46:34.352Z,50.29
2023-04-07T02:49:01.800Z,50.48
2023-04-07T02:51:29.257Z,51.60
2023-04-07T02:53:56.884Z,51.65
2023-04-07T02:56:24.608Z,51.04
2023-04-07T02:58:51.983Z,50.48
2023-04-07T03:01:20.076Z,50.13
2023-04-07T03:03:47.986Z,50.96
2023-04-07T03:06:22.406Z,51.24
2023-04-07T03:09:01.620Z,51.78
2023-04-07T03:11:29.104Z,52.42
2023-04-07T03:13:58.856Z,53.46
2023-04-07T03:16:27.903Z,53.88
2023-04-07T03:19:02.225Z,53.76
2023-04-07T03:21:32.768Z,54.20
2023-04-07T03:24:00.464Z,53.99
2023-04-07T03:26:27.818Z,54.76
2023-04-07T03:28:56.189Z,54.27
2023-04-07T03:31:24.129Z,53.92
2023-04-07T03:33:53.845Z,53.68
2023-04-07T03:36:22.993Z,53.31
2023-04-07T03:38:50.879Z,53.23
2023-04-07T03:41:19.521Z,53.32
2023-04-07T03:43:47.991Z,52.72
2023-04-07T03:46:16.390Z,52.51
2023-04-07T03:48:44.828Z,52.31
2023-04-07T03:51:12.278Z,51.95
2023-04-07T03:53:41.458Z,51.88
2023-04-07T03:56:27.984Z,52.40
2023-04-07T03:58:58.084Z,53.27
2023-04-07T04:01:36.462Z,53.22
2023-04-07T04:04:16.432Z,52.74
2023-04-07T04:06:43.928Z,53.21
2023-04-07T04:09:34.317Z,52.99
2023-04-07T04:12:01.830Z,54.08
2023-04-07T04:14:31.224Z,54.27
2023-04-07T04:17:01.769Z,54.75
2023-04-07T04:19:38.263Z,55.15
2023-04-07T04:22:14.411Z,54.50
2023-04-07T04:24:49.839Z,54.81
2023-04-07T04:27:17.327Z,55.40
2023-04-07T04:29:48.890Z,54.89
2023-04-07T04:32:19.003Z,54.80
2023-04-07T04:34:46.757Z,54.19
2023-04-07T04:37:14.697Z,54.12
2023-04-07T04:39:45.575Z,54.16
2023-04-07T04:42:14.885Z,54.42
2023-04-07T04:44:42.340Z,54.44
2023-04-07T04:47:10.000Z,54.82
2023-04-07T04:49:39.799Z,54.75
2023-04-07T04:52:08.103Z,54.66
2023-04-07T04:54:40.925Z,54.76
2023-04-07T04:57:09.569Z,55.75
2023-04-07T04:59:37.514Z,56.22
2023-04-07T05:02:06.141Z,55.50
2023-04-07T05:04:33.899Z,55.38
2023-04-07T05:07:27.995Z,55.37
2023-04-07T05:09:56.639Z,56.73
2023-04-07T05:12:25.099Z,57.39
2023-04-07T05:14:58.386Z,57.49
2023-04-07T05:17:25.914Z,57.96
2023-04-07T05:19:54.017Z,58.11
2023-04-07T05:22:32.896Z,57.93
2023-04-07T05:25:00.648Z,57.76
2023-04-07T05:27:28.264Z,57.06
2023-04-07T05:30:00.507Z,56.18
2023-04-07T05:32:32.733Z,55.53
2023-04-07T05:35:06.684Z,55.96
2023-04-07T05:37:37.014Z,55.45
2023-04-07T05:40:06.694Z,55.48
2023-04-07T05:42:34.143Z,55.40
2023-04-07T05:45:02.836Z,55.23
2023-04-07T05:47:31.080Z,54.45
2023-04-07T05:49:58.563Z,53.59
2023-04-07T05:52:27.081Z,52.89
2023-04-07T05:55:04.919Z,53.96
2023-04-07T05:57:33.385Z,54.49
2023-04-07T06:00:02.520Z,54.81
2023-04-07T06:02:31.537Z,54.19
2023-04-07T06:04:59.996Z,54.67
2023-04-07T06:07:27.481Z,54.44
2023-04-07T06:09:54.983Z,54.04
2023-04-07T06:12:22.413Z,53.25
2023-04-07T06:14:54.609Z,53.73
2023-04-07T06:17:23.833Z,53.84
2023-04-07T06:19:51.636Z,53.09
2023-04-07T06:22:19.054Z,52.64
2023-04-07T06:24:46.470Z,52.86
2023-04-07T06:27:14.016Z,51.72
2023-04-07T06:29:41.778Z,50.99
2023-04-07T06:32:09.297Z,49.28
2023-04-07T06:34:37.092Z,47.80
2023-04-07T06:37:05.515Z,48.11
2023-04-07T06:39:33.717Z,47.14
2023-04-07T06:42:01.857Z,46.36
2023-04-07T06:44:29.368Z,45.97
2023-04-07T06:46:56.804Z,44.49
2023-04-07T06:49:24.230Z,42.48
2023-04-07T06:51:51.580Z,42.34
2023-04-07T06:54:19.855Z,42.22
2023-04-07T06:56:47.284Z,41.21
2023-04-07T06:59:14.650Z,38.83
2023-04-07T07:01:42.365Z,37.70
2023-04-07T07:04:10.020Z,38.05
2023-04-07T07:06:37.556Z,36.54
2023-04-07T07:09:04.994Z,35.70
2023-04-07T07:11:32.376Z,35.37
2023-04-07T07:13:59.742Z,35.62
2023-04-07T07:16:27.199Z,35.62
2023-04-07T07:18:54.921Z,35.77
2023-04-07T07:21:22.311Z,35.86
2023-04-07T07:23:49.968Z,35.90
2023-04-07T07:26:17.611Z,35.80
2023-04-07T07:28:44.988Z,35.91
2023-04-07T07:31:13.531Z,35.79
2023-04-07T07:33:46.116Z,35.83
2023-04-07T07:36:13.987Z,35.71
2023-04-07T07:38:41.616Z,35.61
2023-04-07T07:41:09.010Z,34.88
2023-04-07T07:43:37.515Z,34.36
2023-04-07T07:46:04.955Z,33.52
2023-04-07T07:48:32.411Z,33.49
2023-04-07T07:50:59.884Z,33.19
2023-04-07T07:53:27.253Z,33.15
2023-04-07T07:55:56.104Z,32.05
2023-04-07T07:58:23.571Z,32.19
2023-04-07T08:00:51.038Z,33.44
2023-04-07T08:03:20.016Z,32.81
2023-04-07T08:05:49.169Z,31.46
2023-04-07T08:08:16.763Z,29.57
2023-04-07T08:10:45.120Z,28.33
2023-04-07T08:13:12.748Z,29.26
2023-04-07T08:15:40.983Z,30.19
2023-04-07T08:18:08.495Z,31.04
2023-04-07T08:20:36.260Z,31.57
2023-04-07T08:23:03.921Z,30.87
2023-04-07T08:25:31.335Z,30.50
2023-04-07T08:27:58.765Z,31.15
2023-04-07T08:30:26.127Z,31.74
2023-04-07T08:32:53.690Z,32.01
2023-04-07T08:35:21.343Z,32.28
2023-04-07T08:37:49.579Z,33.63
2023-04-07T08:40:17.440Z,35.02
2023-04-07T08:42:49.306Z,35.23
2023-04-07T08:45:19.049Z,35.40
2023-04-07T08:47:48.313Z,35.78
2023-04-07T08:50:18.207Z,35.16
2023-04-07T08:52:55.892Z,35.07
2023-04-07T08:55:23.691Z,35.77
2023-04-07T08:57:52.099Z,34.51
2023-04-07T09:00:21.088Z,34.17
2023-04-07T09:02:49.587Z,34.59
2023-04-07T09:05:17.793Z,34.10
2023-04-07T09:07:45.420Z,34.80
2023-04-07T09:10:13.461Z,34.25
2023-04-07T09:12:41.102Z,34.01
2023-04-07T09:15:09.164Z,31.57
2023-04-07T09:17:36.725Z,31.08
2023-04-07T09:20:04.836Z,30.64
2023-04-07T09:22:48.377Z,30.58
2023-04-07T09:25:28.090Z,31.84
2023-04-07T09:28:02.940Z,32.89
2023-04-07T09:30:32.487Z,32.28
2023-04-07T09:33:00.987Z,33.06
2023-04-07T09:35:30.063Z,32.86
2023-04-07T09:38:09.094Z,32.08
2023-04-07T09:40:37.624Z,31.99
2023-04-07T09:43:06.287Z,32.45
2023-04-07T09:45:36.832Z,33.03
2023-04-07T09:48:22.593Z,32.83
2023-04-07T09:50:51.091Z,33.40
2023-04-07T09:53:20.219Z,33.18
2023-04-07T09:55:48.676Z,32.80
2023-04-07T09:58:16.906Z,33.31
2023-04-07T10:00:45.779Z,33.32
2023-04-07T10:03:13.582Z,32.97
2023-04-07T10:05:41.433Z,33.21
2023-04-07T10:08:10.044Z,32.14
2023-04-07T10:10:42.128Z,31.79
2023-04-07T10:13:09.754Z,31.80
2023-04-07T10:15:37.955Z,32.15
2023-04-07T10:18:08.575Z,32.56
2023-04-07T10:20:39.922Z,32.75
2023-04-07T10:23:15.354Z,32.74
2023-04-07T10:25:45.871Z,31.21
2023-04-07T10:28:14.599Z,32.05
2023-04-07T10:30:45.585Z,32.09
2023-04-07T10:33:12.858Z,32.44
2023-04-07T10:36:06.751Z,32.31
2023-04-07T10:38:34.289Z,32.22
2023-04-07T10:41:37.127Z,32.27
2023-04-07T10:44:05.851Z,31.59
2023-04-07T10:46:46.080Z,31.69
2023-04-07T10:49:15.109Z,31.41
2023-04-07T10:51:44.081Z,31.62
2023-04-07T10:54:22.665Z,31.35
2023-04-07T10:57:02.825Z,31.03
2023-04-07T10:59:30.982Z,31.59
2023-04-07T11:02:17.694Z,31.95
2023-04-07T11:04:47.083Z,32.43
2023-04-07T11:07:16.423Z,32.30
2023-04-07T11:09:44.156Z,33.01
2023-04-07T11:12:24.592Z,32.82
2023-04-07T11:14:52.131Z,32.55
2023-04-07T11:17:20.229Z,32.52
2023-04-07T11:19:52.617Z,32.94
2023-04-07T11:22:29.204Z,32.78
2023-04-07T11:24:57.890Z,32.66
2023-04-07T11:27:25.594Z,32.74
2023-04-07T11:29:53.325Z,32.13
2023-04-07T11:32:30.187Z,31.87
2023-04-07T11:34:57.827Z,32.07
2023-04-07T11:37:28.746Z,31.80
2023-04-07T11:39:58.409Z,31.89
2023-04-07T11:42:39.471Z,32.43
2023-04-07T11:45:16.676Z,33.05
2023-04-07T11:47:44.632Z,34.23
2023-04-07T11:50:14.231Z,34.59
2023-04-07T11:52:47.196Z,34.29
2023-04-07T11:55:22.712Z,33.64
2023-04-07T11:57:54.048Z,33.94
2023-04-07T12:00:21.636Z,33.53
2023-04-07T12:02:49.095Z,33.42
2023-04-07T12:05:17.137Z,33.12
2023-04-07T12:07:54.215Z,34.34
2023-04-07T12:10:23.350Z,34.29
2023-04-07T12:12:51.573Z,33.64
2023-04-07T12:15:18.939Z,33.15
2023-04-07T12:17:48.022Z,33.22
2023-04-07T12:20:16.433Z,33.38
2023-04-07T12:22:43.802Z,33.44
2023-04-07T12:25:11.473Z,33.27
2023-04-07T12:27:42.834Z,33.24
2023-04-07T12:30:12.954Z,32.66
2023-04-07T12:32:40.700Z,33.53
2023-04-07T12:35:08.777Z,33.24
2023-04-07T12:37:37.438Z,32.62
2023-04-07T12:40:05.205Z,32.90
2023-04-07T12:42:32.499Z,33.09
2023-04-07T12:45:04.514Z,33.55
2023-04-07T12:47:32.282Z,33.35
2023-04-07T12:50:00.130Z,33.16
2023-04-07T12:52:27.666Z,33.10
2023-04-07T12:54:55.199Z,33.86
2023-04-07T12:57:22.717Z,33.53
2023-04-07T12:59:50.344Z,32.70
2023-04-07T13:02:19.391Z,32.81
2023-04-07T13:04:47.258Z,33.30
2023-04-07T13:07:14.878Z,33.57
2023-04-07T13:09:45.913Z,33.31
2023-04-07T13:12:13.698Z,33.28
2023-04-07T13:14:52.936Z,33.63
2023-04-07T13:17:27.012Z,33.84
2023-04-07T13:19:55.029Z,32.37
2023-04-07T13:22:24.519Z,32.78
2023-04-07T13:24:52.407Z,33.22
2023-04-07T13:27:19.872Z,32.98
2023-04-07T13:29:47.460Z,33.12
2023-04-07T13:32:15.972Z,32.85
2023-04-07T13:34:44.087Z,33.20
2023-04-07T13:37:11.541Z,33.72
2023-04-07T13:39:38.949Z,34.00
2023-04-07T13:42:07.042Z,33.54
2023-04-07T13:44:34.878Z,33.79
2023-04-07T13:47:03.321Z,33.67
2023-04-07T13:49:30.918Z,33.83
2023-04-07T13:51:58.313Z,33.53
2023-04-07T13:54:25.668Z,33.64
2023-04-07T13:56:53.237Z,33.39
2023-04-07T13:59:20.647Z,33.12
2023-04-07T14:01:48.726Z,33.12
2023-04-07T14:04:16.645Z,33.23
2023-04-07T14:06:44.213Z,33.31
2023-04-07T14:09:11.622Z,33.35
2023-04-07T14:11:39.285Z,33.66
2023-04-07T14:14:06.847Z,33.64
2023-04-07T14:16:34.387Z,33.70
2023-04-07T14:19:01.831Z,33.85
2023-04-07T14:21:29.272Z,33.48
2023-04-07T14:23:56.930Z,33.58
2023-04-07T14:26:24.309Z,33.72
2023-04-07T14:28:52.241Z,33.82
2023-04-07T14:31:19.831Z,33.83
2023-04-07T14:33:47.573Z,34.08
2023-04-07T14:36:18.545Z,33.87
2023-04-07T14:38:46.008Z,34.07
2023-04-07T14:41:13.576Z,34.26
2023-04-07T14:43:41.246Z,33.86
2023-04-07T14:46:12.370Z,33.99
2023-04-07T14:48:40.258Z,33.27
2023-04-07T14:51:12.846Z,33.39
2023-04-07T14:53:42.140Z,33.84
2023-04-07T14:56:09.673Z,34.01
2023-04-07T14:58:38.960Z,34.52
2023-04-07T15:01:07.457Z,33.76
2023-04-07T15:03:35.213Z,33.66
2023-04-07T15:06:07.557Z,34.47
2023-04-07T15:08:34.985Z,34.08
2023-04-07T15:11:08.984Z,33.68
2023-04-07T15:13:36.951Z,33.71
2023-04-07T15:16:12.283Z,34.19
2023-04-07T15:18:42.116Z,34.09
2023-04-07T15:21:10.689Z,33.69
2023-04-07T15:23:38.973Z,34.18
2023-04-07T15:26:06.763Z,34.33
2023-04-07T15:28:34.405Z,34.23
2023-04-07T15:31:01.886Z,34.28
2023-04-07T15:33:29.399Z,33.86
2023-04-07T15:35:57.172Z,32.50
2023-04-07T15:38:24.644Z,33.28
2023-04-07T15:40:52.098Z,33.40
2023-04-07T15:43:19.539Z,32.76
2023-04-07T15:45:47.604Z,32.59
2023-04-07T15:48:15.185Z,32.96
2023-04-07T15:50:42.679Z,32.84
2023-04-07T15:53:10.394Z,32.95
2023-04-07T15:55:37.836Z,32.32
2023-04-07T15:58:05.364Z,31.32
2023-04-07T16:00:34.531Z,30.95
2023-04-07T16:03:03.211Z,30.50
2023-04-07T16:05:30.862Z,30.33
2023-04-07T16:07:58.599Z,30.55
2023-04-07T16:10:25.972Z,30.36
2023-04-07T16:12:53.326Z,30.80
2023-04-07T16:15:36.441Z,31.00
2023-04-07T16:18:09.028Z,31.75
2023-04-07T16:20:36.399Z,31.86
2023-04-07T16:23:04.030Z,32.14
2023-04-07T16:25:31.401Z,32.14
2023-04-07T16:27:58.707Z,31.99
2023-04-07T16:30:26.477Z,31.37
2023-04-07T16:32:53.870Z,32.82
2023-04-07T16:35:21.438Z,32.83
2023-04-07T16:37:50.125Z,32.96
2023-04-07T16:40:17.580Z,32.79
2023-04-07T16:42:44.879Z,34.07
2023-04-07T16:45:19.714Z,34.51
2023-04-07T16:47:47.200Z,34.96
2023-04-07T16:50:14.674Z,35.48
2023-04-07T16:52:42.365Z,35.72
2023-04-07T16:55:09.899Z,35.68
2023-04-07T16:57:37.408Z,35.67
2023-04-07T17:00:05.908Z,35.81
2023-04-07T17:02:33.605Z,36.05
2023-04-07T17:05:01.127Z,36.14
2023-04-07T17:07:28.553Z,36.14
2023-04-07T17:09:56.030Z,36.36
2023-04-07T17:12:23.460Z,36.58
2023-04-07T17:14:50.822Z,36.57
2023-04-07T17:17:18.229Z,36.41
2023-04-07T17:19:46.048Z,36.54
2023-04-07T17:22:13.776Z,37.00
2023-04-07T17:24:41.416Z,36.53
2023-04-07T17:27:09.148Z,36.68
2023-04-07T17:29:36.629Z,36.21
2023-04-07T17:32:04.186Z,36.49
2023-04-07T17:34:31.785Z,36.42
2023-04-07T17:36:59.478Z,36.60
2023-04-07T17:39:26.944Z,36.87
2023-04-07T17:41:54.375Z,36.76
2023-04-07T17:44:21.918Z,36.87
2023-04-07T17:46:49.766Z,36.91
2023-04-07T17:49:17.341Z,36.85
2023-04-07T17:51:45.794Z,36.61
2023-04-07T17:54:13.285Z,36.97
2023-04-07T17:56:42.106Z,36.86
2023-04-07T17:59:09.533Z,37.12
2023-04-07T18:01:37.448Z,37.35
2023-04-07T18:04:06.704Z,37.65
2023-04-07T18:06:35.007Z,37.95
2023-04-07T18:09:04.593Z,37.65
2023-04-07T18:11:32.818Z,37.63
2023-04-07T18:14:00.550Z,37.34
2023-04-07T18:16:28.094Z,37.51
2023-04-07T18:18:56.802Z,37.79
2023-04-07T18:21:24.389Z,37.87
2023-04-07T18:23:51.802Z,38.36
2023-04-07T18:26:19.179Z,38.63
2023-04-07T18:28:46.582Z,39.12
2023-04-07T18:31:15.387Z,39.31
2023-04-07T18:33:42.889Z,40.01
2023-04-07T18:36:11.079Z,40.64
2023-04-07T18:38:38.538Z,41.37
2023-04-07T18:41:09.302Z,41.91
2023-04-07T18:43:48.601Z,42.07
2023-04-07T18:46:16.207Z,42.17
2023-04-07T18:48:44.456Z,41.95
2023-04-07T18:51:11.842Z,42.85
2023-04-07T18:53:39.405Z,43.08
2023-04-07T18:56:06.715Z,43.52
2023-04-07T18:58:35.719Z,43.72
2023-04-07T19:01:03.346Z,44.36
2023-04-07T19:03:30.762Z,44.90
2023-04-07T19:05:58.950Z,45.32
2023-04-07T19:08:26.274Z,45.29
2023-04-07T19:10:53.608Z,45.76
2023-04-07T19:13:21.200Z,45.85
2023-04-07T19:15:48.589Z,46.02
2023-04-07T19:18:15.961Z,46.03
2023-04-07T19:20:43.467Z,46.32
2023-04-07T19:23:10.781Z,46.32
2023-04-07T19:25:38.442Z,46.13
2023-04-07T19:28:06.146Z,46.89
2023-04-07T19:30:33.485Z,47.07
2023-04-07T19:33:00.833Z,47.37
2023-04-07T19:35:28.342Z,47.55
2023-04-07T19:37:55.809Z,47.51
2023-04-07T19:40:23.487Z,47.10
2023-04-07T19:42:51.006Z,47.58
2023-04-07T19:45:19.059Z,47.52
2023-04-07T19:47:47.339Z,47.01
2023-04-07T19:50:15.066Z,46.57
2023-04-07T19:52:45.615Z,46.53
2023-04-07T19:55:13.564Z,47.69
2023-04-07T19:57:41.320Z,48.02
2023-04-07T20:00:10.017Z,48.87
2023-04-07T20:02:50.157Z,49.37
2023-04-07T20:05:21.427Z,49.77
2023-04-07T20:07:49.007Z,49.39
2023-04-07T20:10:16.812Z,49.17
2023-04-07T20:12:44.240Z,48.96
2023-04-07T20:15:11.991Z,49.58
2023-04-07T20:17:39.381Z,49.52
2023-04-07T20:20:07.369Z,50.05
2023-04-07T20:22:35.444Z,49.63
2023-04-07T20:25:04.990Z,49.86
2023-04-07T20:27:33.023Z,49.84
2023-04-07T20:30:01.268Z,49.97
2023-04-07T20:32:29.014Z,50.14
2023-04-07T20:34:56.860Z,50.50
2023-04-07T20:37:26.071Z,50.53
2023-04-07T20:39:55.639Z,50.68
2023-04-07T20:42:23.116Z,51.07
2023-04-07T20:44:50.583Z,51.31
2023-04-07T20:47:17.978Z,51.84
2023-04-07T20:49:45.496Z,52.20
2023-04-07T20:52:13.061Z,52.61
2023-04-07T20:54:42.736Z,52.60
2023-04-07T20:57:10.208Z,52.73
2023-04-07T20:59:37.533Z,53.47
2023-04-07T21:02:05.518Z,53.40
2023-04-07T21:04:33.895Z,53.72
2023-04-07T21:07:01.391Z,53.77
2023-04-07T21:09:28.814Z,54.51
2023-04-07T21:11:56.311Z,54.69
2023-04-07T21:14:23.741Z,54.02
2023-04-07T21:16:51.231Z,55.03
2023-04-07T21:19:18.815Z,55.54
2023-04-07T21:21:46.254Z,55.79
2023-04-07T21:24:14.141Z,55.66
2023-04-07T21:26:41.424Z,55.60
2023-04-07T21:29:08.765Z,55.18
2023-04-07T21:31:36.327Z,55.06
2023-04-07T21:34:03.703Z,54.89
2023-04-07T21:36:32.056Z,54.21
2023-04-07T21:38:59.425Z,53.87
2023-04-07T21:41:27.020Z,54.14
2023-04-07T21:44:30.346Z,55.23
2023-04-07T21:46:57.712Z,55.67
2023-04-07T21:49:25.402Z,55.97
2023-04-07T21:51:52.810Z,56.46
2023-04-07T21:54:20.322Z,55.40
2023-04-07T21:56:49.281Z,55.87
2023-04-07T21:59:17.378Z,56.01
2023-04-07T22:01:46.899Z,56.39
2023-04-07T22:04:14.578Z,57.02
2023-04-07T22:06:42.000Z,57.08
2023-04-07T22:09:09.639Z,56.75
2023-04-07T22:11:36.985Z,56.82
2023-04-07T22:14:04.437Z,56.62
2023-04-07T22:16:31.902Z,56.51
2023-04-07T22:18:59.421Z,56.61
2023-04-07T22:21:27.311Z,56.78
2023-04-07T22:23:54.635Z,57.24
2023-04-07T22:26:22.031Z,57.71
2023-04-07T22:28:49.530Z,57.36
2023-04-07T22:31:16.986Z,57.02
2023-04-07T22:33:44.621Z,57.43
2023-04-07T22:36:12.026Z,57.95
2023-04-07T22:38:39.394Z,58.00
2023-04-07T22:41:06.686Z,58.70
2023-04-07T22:43:34.068Z,58.34
2023-04-07T22:46:01.624Z,58.11
2023-04-07T22:48:28.984Z,57.61
2023-04-07T22:50:56.432Z,57.70
2023-04-07T22:53:23.828Z,58.06
2023-04-07T22:55:51.291Z,57.92
2023-04-07T22:58:18.676Z,57.64
2023-04-07T23:00:46.019Z,57.27
2023-04-07T23:03:15.016Z,57.68
2023-04-07T23:05:42.521Z,57.76
2023-04-07T23:08:09.878Z,57.43
2023-04-07T23:10:37.308Z,57.10
2023-04-07T23:13:04.609Z,56.79
2023-04-07T23:15:35.765Z,57.11
2023-04-07T23:18:03.275Z,57.57
2023-04-07T23:20:30.683Z,57.38
2023-04-07T23:22:58.062Z,57.28
2023-04-07T23:25:25.340Z,57.77
2023-04-07T23:27:52.669Z,58.77
2023-04-07T23:30:19.951Z,58.65
2023-04-07T23:32:47.276Z,59.45
2023-04-07T23:35:14.724Z,59.49
2023-04-07T23:37:42.321Z,59.25
2023-04-07T23:40:10.488Z,58.77
2023-04-07T23:42:37.799Z,58.15
2023-04-07T23:45:10.226Z,57.74
2023-04-07T23:47:37.636Z,57.78
2023-04-07T23:50:05.965Z,57.95
2023-04-07T23:52:33.379Z,57.77
2023-04-07T23:55:00.872Z,57.54
2023-04-07T23:57:29.103Z,57.37
2023-04-07T23:59:57.223Z,57.70
